createdAt,value
2019-01-21T00:01:12.953Z,99984.84
2019-01-21T00:07:17.662Z,99984.39
2019-01-21T00:13:23.231Z,99986.58
2019-01-21T00:19:27.868Z,99987.10
2019-01-21T00:25:34.411Z,99990.16
2019-01-21T00:31:38.979Z,99990.59
2019-01-21T00:37:43.579Z,99986.17
2019-01-21T00:43:49.018Z,99984.95
2019-01-21T00:49:53.755Z,99983.88
2019-01-21T00:55:58.504Z,99984.03
2019-01-21T01:02:03.162Z,99973.50
2019-01-21T01:08:07.868Z,99974.89
2019-01-21T01:14:12.456Z,99983.19
2019-01-21T01:20:23.533Z,99980.66
2019-01-21T01:26:28.142Z,99983.04
2019-01-21T01:32:32.856Z,99983.88
2019-01-21T01:38:37.452Z,99992.55
2019-01-21T01:44:42.119Z,99999.55
2019-01-21T01:50:47.128Z,100002.44
2019-01-21T01:56:51.780Z,99996.78
2019-01-21T02:02:57.118Z,99996.23
2019-01-21T02:09:01.848Z,99996.61
2019-01-21T02:15:11.140Z,100000.00
2019-01-21T02:21:15.776Z,99996.23
2019-01-21T02:27:23.465Z,99996.55
2019-01-21T02:34:14.404Z,99992.23
2019-01-21T02:40:41.363Z,99986.72
2019-01-21T02:46:59.293Z,99971.16
2019-01-21T02:53:27.932Z,99972.04
2019-01-21T02:59:50.225Z,99974.22
2019-01-21T03:06:02.379Z,99970.77
2019-01-21T03:12:29.563Z,99980.41
2019-01-21T03:18:41.505Z,99988.35
2019-01-21T03:25:22.866Z,99987.88
2019-01-21T03:31:42.349Z,99978.78
2019-01-21T03:38:09.504Z,99980.91
2019-01-21T03:44:27.190Z,99983.32
2019-01-21T03:50:44.908Z,99984.67
2019-01-21T03:56:54.104Z,99988.02
2019-01-21T04:03:18.331Z,99984.23
2019-01-21T04:09:51.523Z,99980.84
2019-01-21T04:16:24.060Z,100001.91
2019-01-21T04:23:00.277Z,100004.90
2019-01-21T04:29:34.582Z,100003.13
2019-01-21T04:36:10.718Z,100006.00
2019-01-21T04:42:24.494Z,100008.56
2019-01-21T04:48:36.658Z,99997.34
2019-01-21T04:55:12.948Z,99986.37
2019-01-21T05:01:46.239Z,99987.66
2019-01-21T05:08:32.904Z,99982.12
2019-01-21T05:14:57.076Z,99988.38
2019-01-21T05:21:23.935Z,99988.86
2019-01-21T05:27:35.672Z,99997.09
2019-01-21T05:34:11.933Z,99988.14
2019-01-21T05:40:41.758Z,99998.77
2019-01-21T05:46:59.089Z,100002.08
2019-01-21T05:53:30.446Z,99998.67
2019-01-21T06:00:22.912Z,99990.45
2019-01-21T06:06:41.590Z,99977.48
2019-01-21T06:12:56.553Z,99983.48
2019-01-21T06:19:28.836Z,99990.92
2019-01-21T06:26:15.396Z,100001.62
2019-01-21T06:32:48.589Z,100001.76
2019-01-21T06:39:03.266Z,100004.83
2019-01-21T06:45:42.047Z,100008.22
2019-01-21T06:52:23.090Z,100008.94
2019-01-21T06:58:40.701Z,100001.62
2019-01-21T07:04:52.457Z,100004.91
2019-01-21T07:11:04.689Z,100000.77
2019-01-21T07:17:38.070Z,99999.61
2019-01-21T07:23:58.795Z,99994.95
2019-01-21T07:30:19.224Z,100001.48
2019-01-21T07:36:53.930Z,100021.71
2019-01-21T07:43:26.712Z,100015.68
2019-01-21T07:50:17.683Z,100017.42
2019-01-21T07:56:29.619Z,100026.63
2019-01-21T08:02:48.370Z,100019.64
2019-01-21T08:09:09.192Z,100021.05
2019-01-21T08:15:35.655Z,100021.62
2019-01-21T08:21:56.173Z,100022.16
2019-01-21T08:28:08.237Z,100018.55
2019-01-21T08:34:51.635Z,100023.63
2019-01-21T08:41:06.723Z,100037.38
2019-01-21T08:47:28.068Z,100043.13
2019-01-21T08:53:45.891Z,100041.82
2019-01-21T09:00:01.057Z,100054.13
2019-01-21T09:06:20.769Z,100052.73
2019-01-21T09:12:50.888Z,100051.45
2019-01-21T09:19:02.807Z,100037.73
2019-01-21T09:25:50.846Z,100045.45
2019-01-21T09:32:19.217Z,100045.27
2019-01-21T09:39:05.668Z,100061.52
2019-01-21T09:45:14.941Z,100065.16
2019-01-21T09:51:20.147Z,100062.17
2019-01-21T09:57:25.169Z,100062.70
2019-01-21T10:03:30.501Z,100066.06
2019-01-21T10:10:01.985Z,100065.60
2019-01-21T10:16:23.095Z,100055.09
2019-01-21T10:22:48.620Z,100032.92
2019-01-21T10:29:00.457Z,100023.98
2019-01-21T10:35:27.593Z,100010.44
2019-01-21T10:41:48.541Z,100015.11
2019-01-21T10:48:04.832Z,99990.59
2019-01-21T10:54:50.621Z,99974.66
2019-01-21T11:01:36.877Z,99957.53
2019-01-21T11:08:21.589Z,99946.02
2019-01-21T11:14:50.995Z,99940.45
2019-01-21T11:21:15.127Z,99942.48
2019-01-21T11:27:47.838Z,99942.16
2019-01-21T11:34:02.845Z,99940.53
2019-01-21T11:40:17.687Z,99920.70
2019-01-21T11:46:50.523Z,99899.31
2019-01-21T11:53:02.496Z,99893.19
2019-01-21T11:59:14.236Z,99910.88
2019-01-21T12:05:25.140Z,99905.80
2019-01-21T12:11:39.912Z,99909.08
2019-01-21T12:18:03.741Z,99917.31
2019-01-21T12:24:13.361Z,99906.83
2019-01-21T12:30:35.367Z,99893.58
2019-01-21T12:36:44.634Z,99881.91
2019-01-21T12:42:53.919Z,99876.89
2019-01-21T12:49:09.346Z,99857.05
2019-01-21T12:55:33.279Z,99851.20
2019-01-21T13:01:45.281Z,99849.19
2019-01-21T13:08:06.172Z,99847.78
2019-01-21T13:14:36.298Z,99837.52
2019-01-21T13:21:06.405Z,99823.98
2019-01-21T13:27:15.678Z,99809.36
2019-01-21T13:33:40.579Z,99812.42
2019-01-21T13:40:21.335Z,99805.48
2019-01-21T13:46:42.313Z,99788.13
2019-01-21T13:53:08.165Z,99774.60
2019-01-21T13:59:36.808Z,99766.70
2019-01-21T14:06:39.390Z,99763.45
2019-01-21T14:13:26.491Z,99763.09
2019-01-21T14:20:16.612Z,99744.13
2019-01-21T14:33:22.827Z,99744.25
2019-01-21T14:40:07.787Z,99738.99
2019-01-21T14:47:10.556Z,99703.77
2019-01-21T14:54:13.533Z,99724.16
2019-01-21T15:01:16.690Z,99729.42
2019-01-21T15:08:01.692Z,99733.69
2019-01-21T15:14:20.525Z,99736.39
2019-01-21T15:21:23.942Z,99721.98
2019-01-21T15:28:26.730Z,99732.92
2019-01-21T15:35:29.358Z,99701.70
2019-01-21T15:42:32.205Z,99718.34
2019-01-21T15:49:17.223Z,99726.20
2019-01-21T15:56:02.132Z,99719.59
2019-01-21T16:03:04.719Z,99719.28
2019-01-21T16:09:49.557Z,99713.98
2019-01-21T16:16:28.318Z,99701.98
2019-01-21T16:23:30.994Z,99704.67
2019-01-21T16:43:35.575Z,99677.52
2019-01-21T16:49:59.529Z,99676.22
2019-01-21T16:56:23.534Z,99669.30
2019-01-21T17:09:17.002Z,99664.74
2019-01-21T17:15:33.589Z,99665.92
2019-01-21T17:28:28.091Z,99672.69
2019-01-21T17:41:15.274Z,99660.84
2019-01-21T17:54:08.621Z,99675.24
2019-01-21T18:00:32.682Z,99680.41
2019-01-21T18:06:56.674Z,99671.05
2019-01-21T18:13:20.650Z,99646.84
2019-01-21T18:26:34.736Z,99670.88
2019-01-21T18:32:58.816Z,99672.28
2019-01-21T18:39:16.451Z,99662.77
2019-01-21T18:45:40.583Z,99662.47
2019-01-21T18:58:54.318Z,99635.86
2019-01-21T19:12:01.350Z,99640.09
2019-01-21T19:18:44.443Z,99643.16
2019-01-21T19:25:29.426Z,99641.95
2019-01-21T19:31:53.402Z,99640.09
2019-01-21T19:38:36.437Z,99639.53
2019-01-21T19:45:00.413Z,99639.81
2019-01-21T19:51:24.569Z,99629.34
2019-01-21T19:58:07.714Z,99636.99
2019-01-21T20:04:31.812Z,99632.23
2019-01-21T20:11:14.887Z,99628.05
2019-01-21T20:17:32.204Z,99623.47
2019-01-21T20:37:28.130Z,99598.34
2019-01-21T20:43:52.191Z,99583.68
2019-01-21T20:50:37.091Z,99571.61
2019-01-21T20:57:20.258Z,99583.88
2019-01-21T21:10:34.429Z,99572.95
2019-01-21T21:16:58.470Z,99575.55
2019-01-21T21:29:51.711Z,99547.58
2019-01-21T21:43:04.585Z,99562.33
2019-01-21T21:49:47.760Z,99563.06
2019-01-21T22:02:34.365Z,99566.88
2019-01-21T22:09:17.971Z,99572.47
2019-01-21T22:22:34.874Z,99552.40
2019-01-21T22:29:16.753Z,99548.75
2019-01-21T22:55:29.996Z,99529.25
2019-01-21T23:01:45.307Z,99527.02
2019-01-21T23:14:38.493Z,99523.54
2019-01-21T23:21:02.509Z,99500.81
2019-01-21T23:27:26.478Z,99507.38
2019-01-21T23:33:52.194Z,99499.35
2019-01-21T23:47:24.857Z,99484.94
2019-01-21T23:53:41.565Z,99462.47
